Springfield, IL (62712)

10:51 PM CDT on September 18, 2014 (GMT -0500)
Downtown SPI (near South) | Change Station
CLOSE
Current Station
Personal Weather Station
Location: Springfield, IL
Elevation: 600 ft
Nearby Weather Stations

Elev 600 ft 39.78 °N, 89.66 °W | Updated 1 minute ago

Clear
Clear
60.9 °F
Feels Like 60.9 °F
N
0.0
Wind Variable Wind from ENE
Gusts 0.0 mph

Today
High -- | Low -- °F
--% Chance of Precip.
Yesterday
High -- | Low -- °F
Precip. -- in
6:42 AM 7:02 PM
Waning Crescent, 22% visible
Pressure 30.09 in
Visibility 10.0 miles
Clouds Clear
Dew Point 50 °F
Humidity 67%
Rainfall 0.00 in
Snow Depth Not available.
UV 0 out of 12
Pollen 6.00 out of 12
Ozone Good
PM2.5 Good
Flu Activity Not available.
METAR KSPI 190252Z 08004KT 10SM CLR 13/09 A3009 RMK AO2 SLP188 T01330094 51016

More Conditions Fewer Conditions

Pressure 30.09 in
Visibility 10.0 miles
Clouds Clear
Dew Point 50 °F
Humidity 67%
Rainfall 0.00 in
Snow Depth Not available.
UV 0 out of 12
Pollen 6.00 out of 12
Ozone Good
PM2.5 Good
Flu Activity Not available.
METAR KSPI 190252Z 08004KT 10SM CLR 13/09 A3009 RMK AO2 SLP188 T01330094 51016

More Conditions Fewer Conditions

10-Day Weather Forecast

Almanac

Astronomy

Sep. 18, 2014 Rise Set
Actual Time 6:42 AM CDT 7:02 PM CDT
Civil Twilight 6:15 AM CDT 7:29 PM CDT
Nautical Twilight 5:43 AM CDT 8:00 PM CDT
Astronomical Twilight 5:11 AM CDT 8:33 PM CDT
Moon 1:34 AM CDT (9/18) 3:53 PM CDT (9/18)
Length of Visible Light 13h 13m
Length of Day
12h 19m
Tomorrow will be 2m 35s shorter.
Waning Crescent, 22% of the Moon is Illuminated
Today
Waning Crescent
Sep 24
New
Oct 1
First Quarter
Oct 8
Full
Oct 15
Last Quarter

Today's Extremes

State Highs State Lows

Community

WunderPhotos

Upload Photos

1,754,553 photos uploaded!

Nearby

Air Quality

  Air Quality AQ Index Pollutant
Yesterday Moderate
PM2.5
Yesterday Good
OZONE
Current Good
PM2.5
Current Good
OZONE
Thursday Good
PM2.5
Friday Moderate
PM2.5
Saturday Moderate
PM2.5
Sunday Good
PM2.5

Snow Depth

Station Depth Elevation
No new snow has been reported.

Earthquake Activity

City Distance Mag. Time & Date
No recent earthquake activity has been reported nearby.
Minimum magnitude displayed is 2.5.

Coastal Water Temperatures

Place Temperature
No Stations Reporting

Nearby Weather Stations